sensor_id;sensor_type;location;lat;lon;timestamp;pressure;altitude;pressure_sealevel;temperature;humidity
7966;BME280;4028;43.272;26.932;2024-01-11T00:00:20;100337.66;;;-6.12;100.00
7966;BME280;4028;43.272;26.932;2024-01-11T00:02:46;100341.94;;;-6.11;100.00
7966;BME280;4028;43.272;26.932;2024-01-11T00:05:11;100333.22;;;-5.93;100.00
7966;BME280;4028;43.272;26.932;2024-01-11T00:07:37;100330.69;;;-5.98;100.00
7966;BME280;4028;43.272;26.932;2024-01-11T00:10:02;100307.66;;;-6.25;100.00
7966;BME280;4028;43.272;26.932;2024-01-11T00:12:28;100336.13;;;-6.42;100.00
7966;BME280;4028;43.272;26.932;2024-01-11T00:14:54;100333.66;;;-6.62;100.00
7966;BME280;4028;43.272;26.932;2024-01-11T00:17:19;100320.88;;;-6.79;100.00
7966;BME280;4028;43.272;26.932;2024-01-11T00:19:45;100323.25;;;-6.42;100.00
7966;BME280;4028;43.272;26.932;2024-01-11T00:22:10;100330.97;;;-6.45;100.00
7966;BME280;4028;43.272;26.932;2024-01-11T00:24:36;100326.06;;;-6.91;100.00
7966;BME280;4028;43.272;26.932;2024-01-11T00:27:01;100322.47;;;-6.55;100.00
7966;BME280;4028;43.272;26.932;2024-01-11T00:29:27;100323.31;;;-6.56;100.00
7966;BME280;4028;43.272;26.932;2024-01-11T00:31:54;100326.06;;;-6.90;100.00
7966;BME280;4028;43.272;26.932;2024-01-11T00:34:19;100333.84;;;-7.10;100.00
7966;BME280;4028;43.272;26.932;2024-01-11T00:36:45;100321.75;;;-6.88;100.00
7966;BME280;4028;43.272;26.932;2024-01-11T00:39:10;100326.81;;;-6.66;100.00
7966;BME280;4028;43.272;26.932;2024-01-11T00:41:37;100324.19;;;-6.59;100.00
7966;BME280;4028;43.272;26.932;2024-01-11T00:44:02;100318.25;;;-6.76;100.00
7966;BME280;4028;43.272;26.932;2024-01-11T00:46:28;100320.03;;;-6.84;100.00
7966;BME280;4028;43.272;26.932;2024-01-11T00:48:53;100320.72;;;-6.53;100.00
7966;BME280;4028;43.272;26.932;2024-01-11T00:51:19;100320.72;;;-6.51;100.00
7966;BME280;4028;43.272;26.932;2024-01-11T00:53:44;100317.34;;;-6.63;100.00
7966;BME280;4028;43.272;26.932;2024-01-11T00:56:19;100312.09;;;-6.46;100.00
7966;BME280;4028;43.272;26.932;2024-01-11T00:58:45;100302.66;;;-6.45;100.00
7966;BME280;4028;43.272;26.932;2024-01-11T01:01:11;100309.47;;;-6.34;100.00
7966;BME280;4028;43.272;26.932;2024-01-11T01:03:38;100301.03;;;-6.59;100.00
7966;BME280;4028;43.272;26.932;2024-01-11T01:06:03;100304.47;;;-6.66;100.00
7966;BME280;4028;43.272;26.932;2024-01-11T01:08:30;100301.13;;;-6.82;100.00
7966;BME280;4028;43.272;26.932;2024-01-11T01:10:55;100300.28;;;-6.79;100.00
7966;BME280;4028;43.272;26.932;2024-01-11T01:13:21;100296.16;;;-7.20;100.00
7966;BME280;4028;43.272;26.932;2024-01-11T01:15:46;100300.50;;;-7.36;100.00
7966;BME280;4028;43.272;26.932;2024-01-11T01:18:12;100292.75;;;-7.29;100.00
7966;BME280;4028;43.272;26.932;2024-01-11T01:20:37;100292.78;;;-7.39;100.00
7966;BME280;4028;43.272;26.932;2024-01-11T01:23:03;100294.50;;;-7.48;100.00
7966;BME280;4028;43.272;26.932;2024-01-11T01:25:28;100292.81;;;-7.42;100.00
7966;BME280;4028;43.272;26.932;2024-01-11T01:27:55;100285.84;;;-7.18;100.00
7966;BME280;4028;43.272;26.932;2024-01-11T01:30:20;100279.00;;;-7.27;100.00
7966;BME280;4028;43.272;26.932;2024-01-11T01:32:46;100276.50;;;-7.39;100.00
7966;BME280;4028;43.272;26.932;2024-01-11T01:35:11;100278.25;;;-7.64;100.00
7966;BME280;4028;43.272;26.932;2024-01-11T01:37:36;100271.34;;;-7.31;100.00
7966;BME280;4028;43.272;26.932;2024-01-11T01:40:02;100268.66;;;-7.04;100.00
7966;BME280;4028;43.272;26.932;2024-01-11T01:42:28;100260.81;;;-6.78;100.00
7966;BME280;4028;43.272;26.932;2024-01-11T01:44:53;100262.53;;;-6.83;100.00
7966;BME280;4028;43.272;26.932;2024-01-11T01:47:19;100252.25;;;-6.85;100.00
7966;BME280;4028;43.272;26.932;2024-01-11T01:49:48;100241.91;;;-6.77;100.00
7966;BME280;4028;43.272;26.932;2024-01-11T01:52:13;100241.25;;;-7.14;100.00
7966;BME280;4028;43.272;26.932;2024-01-11T01:54:39;100244.69;;;-7.18;100.00
7966;BME280;4028;43.272;26.932;2024-01-11T01:57:05;100238.59;;;-7.02;100.00
7966;BME280;4028;43.272;26.932;2024-01-11T01:59:33;100228.25;;;-6.91;100.00
7966;BME280;4028;43.272;26.932;2024-01-11T02:01:59;100230.91;;;-7.00;100.00
7966;BME280;4028;43.272;26.932;2024-01-11T02:04:24;100230.88;;;-6.99;100.00
7966;BME280;4028;43.272;26.932;2024-01-11T02:06:51;100223.09;;;-6.85;100.00
7966;BME280;4028;43.272;26.932;2024-01-11T02:09:18;100226.50;;;-6.86;100.00
7966;BME280;4028;43.272;26.932;2024-01-11T02:11:45;100227.47;;;-7.01;100.00
7966;BME280;4028;43.272;26.932;2024-01-11T02:14:10;100227.50;;;-7.04;100.00
7966;BME280;4028;43.272;26.932;2024-01-11T02:16:37;100205.31;;;-7.28;100.00
7966;BME280;4028;43.272;26.932;2024-01-11T02:19:04;100217.38;;;-7.41;100.00
7966;BME280;4028;43.272;26.932;2024-01-11T02:21:33;100227.56;;;-7.19;100.00
7966;BME280;4028;43.272;26.932;2024-01-11T02:24:03;100219.91;;;-7.42;100.00
7966;BME280;4028;43.272;26.932;2024-01-11T02:26:29;100220.84;;;-7.55;100.00
7966;BME280;4028;43.272;26.932;2024-01-11T02:28:54;100225.09;;;-7.53;100.00
7966;BME280;4028;43.272;26.932;2024-01-11T02:31:20;100221.69;;;-7.52;100.00
7966;BME280;4028;43.272;26.932;2024-01-11T02:33:46;100207.94;;;-7.45;100.00
7966;BME280;4028;43.272;26.932;2024-01-11T02:36:12;100205.31;;;-7.33;100.00
7966;BME280;4028;43.272;26.932;2024-01-11T02:38:40;100206.16;;;-7.32;100.00
7966;BME280;4028;43.272;26.932;2024-01-11T02:41:07;100202.78;;;-7.43;100.00
7966;BME280;4028;43.272;26.932;2024-01-11T02:43:33;100196.81;;;-7.53;100.00
7966;BME280;4028;43.272;26.932;2024-01-11T02:46:01;100202.03;;;-7.68;100.00
7966;BME280;4028;43.272;26.932;2024-01-11T02:48:28;100202.03;;;-7.74;100.00
7966;BME280;4028;43.272;26.932;2024-01-11T02:50:54;100201.22;;;-7.81;100.00
7966;BME280;4028;43.272;26.932;2024-01-11T02:53:19;100189.16;;;-7.62;100.00
7966;BME280;4028;43.272;26.932;2024-01-11T02:55:45;100193.44;;;-7.60;100.00
7966;BME280;4028;43.272;26.932;2024-01-11T02:58:10;100196.75;;;-7.38;100.00
7966;BME280;4028;43.272;26.932;2024-01-11T03:00:36;100197.75;;;-7.66;100.00
7966;BME280;4028;43.272;26.932;2024-01-11T03:03:01;100194.22;;;-7.39;100.00
7966;BME280;4028;43.272;26.932;2024-01-11T03:05:27;100181.44;;;-7.59;100.00
7966;BME280;4028;43.272;26.932;2024-01-11T03:07:53;100172.84;;;-7.55;100.00
7966;BME280;4028;43.272;26.932;2024-01-11T03:10:18;100173.69;;;-7.47;100.00
7966;BME280;4028;43.272;26.932;2024-01-11T03:12:44;100180.38;;;-7.11;100.00
7966;BME280;4028;43.272;26.932;2024-01-11T03:15:09;100176.91;;;-7.10;100.00
7966;BME280;4028;43.272;26.932;2024-01-11T03:17:35;100172.78;;;-7.37;100.00
7966;BME280;4028;43.272;26.932;2024-01-11T03:20:00;100170.88;;;-7.07;100.00
7966;BME280;4028;43.272;26.932;2024-01-11T03:22:26;100172.59;;;-7.03;100.00
7966;BME280;4028;43.272;26.932;2024-01-11T03:24:51;100168.34;;;-7.05;100.00
7966;BME280;4028;43.272;26.932;2024-01-11T03:27:17;100158.91;;;-7.08;100.00
7966;BME280;4028;43.272;26.932;2024-01-11T03:29:43;100161.47;;;-7.05;100.00
7966;BME280;4028;43.272;26.932;2024-01-11T03:32:08;100111.03;;;-7.30;100.00
7966;BME280;4028;43.272;26.932;2024-01-11T03:34:37;100163.31;;;-7.30;100.00
7966;BME280;4028;43.272;26.932;2024-01-11T03:37:03;100159.81;;;-7.15;100.00
7966;BME280;4028;43.272;26.932;2024-01-11T03:39:28;100157.19;;;-7.06;100.00
7966;BME280;4028;43.272;26.932;2024-01-11T03:41:54;100149.53;;;-7.20;100.00
7966;BME280;4028;43.272;26.932;2024-01-11T03:44:19;100148.75;;;-7.33;100.00
7966;BME280;4028;43.272;26.932;2024-01-11T03:46:45;100140.06;;;-7.13;100.00
7966;BME280;4028;43.272;26.932;2024-01-11T03:49:10;100139.97;;;-6.99;100.00
7966;BME280;4028;43.272;26.932;2024-01-11T03:51:36;100140.09;;;-7.15;100.00
7966;BME280;4028;43.272;26.932;2024-01-11T03:54:01;100141.78;;;-7.11;100.00
7966;BME280;4028;43.272;26.932;2024-01-11T03:56:27;100139.19;;;-7.06;100.00
7966;BME280;4028;43.272;26.932;2024-01-11T03:58:52;100129.91;;;-7.38;100.00
7966;BME280;4028;43.272;26.932;2024-01-11T04:01:17;100137.63;;;-7.38;100.00
7966;BME280;4028;43.272;26.932;2024-01-11T04:03:44;100110.34;;;-7.62;100.00
7966;BME280;4028;43.272;26.932;2024-01-11T04:06:19;100091.41;;;-7.53;100.00
7966;BME280;4028;43.272;26.932;2024-01-11T04:08:46;100126.34;;;-7.14;100.00
7966;BME280;4028;43.272;26.932;2024-01-11T04:11:11;100126.44;;;-7.27;100.00
7966;BME280;4028;43.272;26.932;2024-01-11T04:13:37;100124.69;;;-7.24;100.00
7966;BME280;4028;43.272;26.932;2024-01-11T04:16:07;100107.50;;;-7.17;100.00
7966;BME280;4028;43.272;26.932;2024-01-11T04:18:33;100109.22;;;-7.18;100.00
7966;BME280;4028;43.272;26.932;2024-01-11T04:20:59;100109.09;;;-6.98;100.00
7966;BME280;4028;43.272;26.932;2024-01-11T04:23:24;100088.44;;;-6.89;100.00
7966;BME280;4028;43.272;26.932;2024-01-11T04:25:50;100098.88;;;-7.09;100.00
7966;BME280;4028;43.272;26.932;2024-01-11T04:28:16;100088.75;;;-7.35;100.00
7966;BME280;4028;43.272;26.932;2024-01-11T04:30:42;100098.34;;;-7.61;100.00
7966;BME280;4028;43.272;26.932;2024-01-11T04:33:08;100098.25;;;-7.46;100.00
7966;BME280;4028;43.272;26.932;2024-01-11T04:35:33;100097.34;;;-7.39;100.00
7966;BME280;4028;43.272;26.932;2024-01-11T04:37:59;100098.06;;;-7.14;100.00
7966;BME280;4028;43.272;26.932;2024-01-11T04:40:24;100095.75;;;-7.58;100.00
7966;BME280;4028;43.272;26.932;2024-01-11T04:42:50;100103.47;;;-7.60;100.00
7966;BME280;4028;43.272;26.932;2024-01-11T04:45:15;100095.75;;;-7.58;100.00
7966;BME280;4028;43.272;26.932;2024-01-11T04:47:40;100094.91;;;-7.68;100.00
7966;BME280;4028;43.272;26.932;2024-01-11T04:50:07;100105.19;;;-7.68;100.00
7966;BME280;4028;43.272;26.932;2024-01-11T04:52:32;100103.50;;;-7.69;100.00
7966;BME280;4028;43.272;26.932;2024-01-11T04:54:58;100108.66;;;-7.73;100.00
7966;BME280;4028;43.272;26.932;2024-01-11T04:57:23;100108.72;;;-7.82;100.00
7966;BME280;4028;43.272;26.932;2024-01-11T04:59:49;100100.06;;;-7.62;100.00
7966;BME280;4028;43.272;26.932;2024-01-11T05:02:14;100099.13;;;-7.50;100.00
7966;BME280;4028;43.272;26.932;2024-01-11T05:04:40;100103.44;;;-7.58;100.00
7966;BME280;4028;43.272;26.932;2024-01-11T05:07:05;100102.59;;;-7.59;100.00
7966;BME280;4028;43.272;26.932;2024-01-11T05:09:31;100098.28;;;-7.53;100.00
7966;BME280;4028;43.272;26.932;2024-01-11T05:11:57;100091.41;;;-7.47;100.00
7966;BME280;4028;43.272;26.932;2024-01-11T05:14:22;100099.91;;;-7.36;100.00
7966;BME280;4028;43.272;26.932;2024-01-11T05:16:47;100093.09;;;-7.44;100.00
7966;BME280;4028;43.272;26.932;2024-01-11T05:19:13;100099.84;;;-7.25;100.00
7966;BME280;4028;43.272;26.932;2024-01-11T05:21:39;100087.09;;;-7.42;100.00
7966;BME280;4028;43.272;26.932;2024-01-11T05:24:04;100081.91;;;-7.34;100.00
7966;BME280;4028;43.272;26.932;2024-01-11T05:26:30;100080.09;;;-7.20;100.00
7966;BME280;4028;43.272;26.932;2024-01-11T05:28:55;100078.31;;;-7.10;100.00
7966;BME280;4028;43.272;26.932;2024-01-11T05:31:21;100079.09;;;-7.00;100.00
7966;BME280;4028;43.272;26.932;2024-01-11T05:33:47;100057.63;;;-6.98;100.00
7966;BME280;4028;43.272;26.932;2024-01-11T05:36:12;100071.19;;;-6.77;100.00
7966;BME280;4028;43.272;26.932;2024-01-11T05:38:39;100074.47;;;-6.60;100.00
7966;BME280;4028;43.272;26.932;2024-01-11T05:41:04;100071.03;;;-6.59;100.00
7966;BME280;4028;43.272;26.932;2024-01-11T05:43:30;100063.47;;;-6.79;100.00
7966;BME280;4028;43.272;26.932;2024-01-11T05:45:55;100064.31;;;-6.75;100.00
7966;BME280;4028;43.272;26.932;2024-01-11T05:48:21;100056.75;;;-6.97;100.00
7966;BME280;4028;43.272;26.932;2024-01-11T05:50:46;100054.16;;;-6.91;100.00
7966;BME280;4028;43.272;26.932;2024-01-11T05:53:12;100051.63;;;-7.01;100.00
7966;BME280;4028;43.272;26.932;2024-01-11T05:55:38;100053.47;;;-7.11;100.00
7966;BME280;4028;43.272;26.932;2024-01-11T05:58:04;100050.09;;;-7.19;100.00
7966;BME280;4028;43.272;26.932;2024-01-11T06:00:29;100043.16;;;-7.11;100.00
7966;BME280;4028;43.272;26.932;2024-01-11T06:02:55;100049.00;;;-6.89;100.00
7966;BME280;4028;43.272;26.932;2024-01-11T06:05:20;100049.69;;;-6.70;100.00
7966;BME280;4028;43.272;26.932;2024-01-11T06:07:46;100043.69;;;-6.74;100.00
7966;BME280;4028;43.272;26.932;2024-01-11T06:10:13;100033.16;;;-6.51;100.00
7966;BME280;4028;43.272;26.932;2024-01-11T06:12:39;100051.28;;;-6.59;100.00
7966;BME280;4028;43.272;26.932;2024-01-11T06:15:05;100040.03;;;-6.48;100.00
7966;BME280;4028;43.272;26.932;2024-01-11T06:17:31;100045.97;;;-6.45;100.00
7966;BME280;4028;43.272;26.932;2024-01-11T06:19:56;100048.94;;;-6.86;100.00
7966;BME280;4028;43.272;26.932;2024-01-11T06:22:22;100051.59;;;-6.94;100.00
7966;BME280;4028;43.272;26.932;2024-01-11T06:24:47;100053.34;;;-6.99;100.00
7966;BME280;4028;43.272;26.932;2024-01-11T06:27:13;100051.53;;;-6.85;100.00
7966;BME280;4028;43.272;26.932;2024-01-11T06:29:38;100047.91;;;-6.64;100.00
7966;BME280;4028;43.272;26.932;2024-01-11T06:32:04;100056.53;;;-6.71;100.00
7966;BME280;4028;43.272;26.932;2024-01-11T06:34:30;100054.97;;;-6.89;100.00
7966;BME280;4028;43.272;26.932;2024-01-11T06:36:56;100041.16;;;-6.78;100.00
7966;BME280;4028;43.272;26.932;2024-01-11T06:39:21;100054.81;;;-6.69;100.00
7966;BME280;4028;43.272;26.932;2024-01-11T06:41:47;100054.81;;;-6.69;100.00
7966;BME280;4028;43.272;26.932;2024-01-11T06:44:12;100047.75;;;-6.50;100.00
7966;BME280;4028;43.272;26.932;2024-01-11T06:46:38;100037.19;;;-6.24;100.00
7966;BME280;4028;43.272;26.932;2024-01-11T06:49:10;100037.72;;;-5.99;100.00
7966;BME280;4028;43.272;26.932;2024-01-11T06:51:35;100039.28;;;-5.89;100.00
7966;BME280;4028;43.272;26.932;2024-01-11T06:54:01;100039.28;;;-5.87;100.00
7966;BME280;4028;43.272;26.932;2024-01-11T06:56:27;100042.88;;;-5.99;100.00
7966;BME280;4028;43.272;26.932;2024-01-11T06:58:54;100042.00;;;-5.96;100.00
7966;BME280;4028;43.272;26.932;2024-01-11T07:01:20;100035.69;;;-5.76;100.00
7966;BME280;4028;43.272;26.932;2024-01-11T07:03:45;100034.66;;;-5.62;100.00
7966;BME280;4028;43.272;26.932;2024-01-11T07:06:11;100031.91;;;-5.52;100.00
7966;BME280;4028;43.272;26.932;2024-01-11T07:08:37;100034.59;;;-5.59;100.00
7966;BME280;4028;43.272;26.932;2024-01-11T07:11:02;100028.03;;;-5.82;100.00
7966;BME280;4028;43.272;26.932;2024-01-11T07:13:29;100028.56;;;-5.58;100.00
7966;BME280;4028;43.272;26.932;2024-01-11T07:15:54;100028.56;;;-5.58;100.00
7966;BME280;4028;43.272;26.932;2024-01-11T07:18:22;100023.66;;;-5.77;100.00
7966;BME280;4028;43.272;26.932;2024-01-11T07:20:47;100010.25;;;-5.98;100.00
7966;BME280;4028;43.272;26.932;2024-01-11T07:23:14;100026.19;;;-5.73;100.00
7966;BME280;4028;43.272;26.932;2024-01-11T07:25:39;100016.81;;;-5.78;100.00
7966;BME280;4028;43.272;26.932;2024-01-11T07:28:06;100016.06;;;-5.89;100.00
7966;BME280;4028;43.272;26.932;2024-01-11T07:30:31;100009.66;;;-5.59;100.00
7966;BME280;4028;43.272;26.932;2024-01-11T07:32:57;100010.72;;;-5.73;100.00
7966;BME280;4028;43.272;26.932;2024-01-11T07:35:22;100009.72;;;-5.63;100.00
7966;BME280;4028;43.272;26.932;2024-01-11T07:37:48;100005.34;;;-5.57;100.00
7966;BME280;4028;43.272;26.932;2024-01-11T07:40:15;100001.63;;;-5.37;100.00
7966;BME280;4028;43.272;26.932;2024-01-11T07:42:42;100001.53;;;-5.31;100.00
7966;BME280;4028;43.272;26.932;2024-01-11T07:45:08;100006.16;;;-4.99;100.00
7966;BME280;4028;43.272;26.932;2024-01-11T07:47:35;100002.38;;;-4.80;100.00
7966;BME280;4028;43.272;26.932;2024-01-11T07:50:03;100009.47;;;-4.91;100.00
7966;BME280;4028;43.272;26.932;2024-01-11T07:52:29;100003.19;;;-4.78;100.00
7966;BME280;4028;43.272;26.932;2024-01-11T07:54:54;99994.69;;;-4.83;100.00
7966;BME280;4028;43.272;26.932;2024-01-11T07:57:20;100003.69;;;-4.57;100.00
7966;BME280;4028;43.272;26.932;2024-01-11T07:59:45;100006.88;;;-4.43;100.00
7966;BME280;4028;43.272;26.932;2024-01-11T08:02:11;99995.25;;;-4.22;100.00
7966;BME280;4028;43.272;26.932;2024-01-11T08:04:36;99995.56;;;-3.94;100.00
7966;BME280;4028;43.272;26.932;2024-01-11T08:07:04;99946.34;;;-3.91;100.00
7966;BME280;4028;43.272;26.932;2024-01-11T08:09:29;99983.78;;;-3.69;100.00
7966;BME280;4028;43.272;26.932;2024-01-11T08:11:55;99980.94;;;-3.97;100.00
7966;BME280;4028;43.272;26.932;2024-01-11T08:14:21;99979.38;;;-3.65;100.00
7966;BME280;4028;43.272;26.932;2024-01-11T08:16:46;99982.31;;;-3.07;100.00
7966;BME280;4028;43.272;26.932;2024-01-11T08:19:12;99980.59;;;-2.73;100.00
7966;BME280;4028;43.272;26.932;2024-01-11T08:21:41;99970.22;;;-2.71;100.00
7966;BME280;4028;43.272;26.932;2024-01-11T08:24:07;99971.19;;;-2.77;100.00
7966;BME280;4028;43.272;26.932;2024-01-11T08:26:33;99965.88;;;-2.72;100.00
7966;BME280;4028;43.272;26.932;2024-01-11T08:28:59;99971.91;;;-2.39;100.00
7966;BME280;4028;43.272;26.932;2024-01-11T08:31:25;99961.25;;;-2.28;100.00
7966;BME280;4028;43.272;26.932;2024-01-11T08:33:50;99961.00;;;-2.50;100.00
7966;BME280;4028;43.272;26.932;2024-01-11T08:36:16;99965.03;;;-2.40;100.00
7966;BME280;4028;43.272;26.932;2024-01-11T08:38:41;99954.78;;;-2.15;100.00
7966;BME280;4028;43.272;26.932;2024-01-11T08:41:07;99951.19;;;-2.10;100.00
7966;BME280;4028;43.272;26.932;2024-01-11T08:43:32;99952.91;;;-2.08;100.00
7966;BME280;4028;43.272;26.932;2024-01-11T08:45:58;99924.50;;;-2.43;100.00
7966;BME280;4028;43.272;26.932;2024-01-11T08:48:25;99943.09;;;-2.28;100.00
7966;BME280;4028;43.272;26.932;2024-01-11T08:50:50;99939.94;;;-2.10;100.00
7966;BME280;4028;43.272;26.932;2024-01-11T08:53:16;99945.25;;;-1.84;100.00
7966;BME280;4028;43.272;26.932;2024-01-11T08:55:42;99935.03;;;-1.62;100.00
7966;BME280;4028;43.272;26.932;2024-01-11T08:58:08;99929.28;;;-1.43;100.00
7966;BME280;4028;43.272;26.932;2024-01-11T09:00:34;99900.59;;;-1.40;96.87
7966;BME280;4028;43.272;26.932;2024-01-11T09:02:59;99914.88;;;-1.27;92.26
7966;BME280;4028;43.272;26.932;2024-01-11T09:05:25;99881.38;;;-1.10;82.80
7966;BME280;4028;43.272;26.932;2024-01-11T09:07:51;99902.09;;;-1.07;80.55
7966;BME280;4028;43.272;26.932;2024-01-11T09:10:16;99892.25;;;-0.98;83.93
7966;BME280;4028;43.272;26.932;2024-01-11T09:12:42;99887.88;;;-0.96;79.71
7966;BME280;4028;43.272;26.932;2024-01-11T09:15:07;99884.59;;;-1.01;78.52
7966;BME280;4028;43.272;26.932;2024-01-11T09:17:33;99884.09;;;-0.88;81.33
7966;BME280;4028;43.272;26.932;2024-01-11T09:19:59;99880.00;;;-0.46;82.83
7966;BME280;4028;43.272;26.932;2024-01-11T09:22:24;99862.69;;;-0.24;75.67
7966;BME280;4028;43.272;26.932;2024-01-11T09:24:50;99863.63;;;-0.48;75.72
7966;BME280;4028;43.272;26.932;2024-01-11T09:27:15;99860.00;;;-0.44;76.70
7966;BME280;4028;43.272;26.932;2024-01-11T09:29:45;99850.78;;;-0.30;77.10
7966;BME280;4028;43.272;26.932;2024-01-11T09:32:12;99845.75;;;0.10;77.87
7966;BME280;4028;43.272;26.932;2024-01-11T09:34:37;99842.69;;;0.22;75.32
7966;BME280;4028;43.272;26.932;2024-01-11T09:37:03;99830.28;;;0.49;71.71
7966;BME280;4028;43.272;26.932;2024-01-11T09:39:29;99836.09;;;0.76;67.07
7966;BME280;4028;43.272;26.932;2024-01-11T09:41:59;99825.66;;;0.76;67.63
7966;BME280;4028;43.272;26.932;2024-01-11T09:44:30;99818.34;;;0.23;72.04
7966;BME280;4028;43.272;26.932;2024-01-11T09:46:56;99819.78;;;0.30;70.63
7966;BME280;4028;43.272;26.932;2024-01-11T09:49:23;99815.94;;;0.39;68.98
7966;BME280;4028;43.272;26.932;2024-01-11T09:51:50;99801.06;;;0.42;68.76
7966;BME280;4028;43.272;26.932;2024-01-11T09:54:18;99803.50;;;0.45;70.16
7966;BME280;4028;43.272;26.932;2024-01-11T09:56:46;99793.16;;;0.23;74.08
7966;BME280;4028;43.272;26.932;2024-01-11T09:59:12;99794.56;;;0.73;68.47
7966;BME280;4028;43.272;26.932;2024-01-11T10:01:38;99783.53;;;0.66;66.44
7966;BME280;4028;43.272;26.932;2024-01-11T10:04:04;99794.53;;;0.32;68.16
7966;BME280;4028;43.272;26.932;2024-01-11T10:06:32;99777.91;;;0.57;65.42
7966;BME280;4028;43.272;26.932;2024-01-11T10:08:59;99782.94;;;0.80;62.18
7966;BME280;4028;43.272;26.932;2024-01-11T10:11:25;99769.59;;;0.88;62.33
7966;BME280;4028;43.272;26.932;2024-01-11T10:13:56;99745.75;;;0.76;65.06
7966;BME280;4028;43.272;26.932;2024-01-11T10:16:22;99757.41;;;0.88;65.07
7966;BME280;4028;43.272;26.932;2024-01-11T10:18:48;99753.88;;;0.89;61.28
7966;BME280;4028;43.272;26.932;2024-01-11T10:21:13;99751.84;;;0.96;60.14
7966;BME280;4028;43.272;26.932;2024-01-11T10:23:39;99746.75;;;0.74;60.22
7966;BME280;4028;43.272;26.932;2024-01-11T10:26:05;99753.72;;;0.73;55.91
7966;BME280;4028;43.272;26.932;2024-01-11T10:28:32;99742.56;;;0.70;55.92
7966;BME280;4028;43.272;26.932;2024-01-11T10:31:05;99738.97;;;1.12;56.58
7966;BME280;4028;43.272;26.932;2024-01-11T10:33:34;99739.41;;;1.02;54.09
7966;BME280;4028;43.272;26.932;2024-01-11T10:36:00;99739.13;;;1.09;55.50
7966;BME280;4028;43.272;26.932;2024-01-11T10:38:26;99733.75;;;0.93;57.30
7966;BME280;4028;43.272;26.932;2024-01-11T10:40:55;99728.84;;;1.24;59.07
7966;BME280;4028;43.272;26.932;2024-01-11T10:43:23;99702.13;;;1.19;61.78
7966;BME280;4028;43.272;26.932;2024-01-11T10:45:51;99717.19;;;1.32;66.69
7966;BME280;4028;43.272;26.932;2024-01-11T10:48:21;99705.28;;;1.45;69.29
7966;BME280;4028;43.272;26.932;2024-01-11T10:50:54;99709.31;;;1.14;81.12
7966;BME280;4028;43.272;26.932;2024-01-11T10:56:05;99693.78;;;1.49;83.05
7966;BME280;4028;43.272;26.932;2024-01-11T10:58:34;99678.63;;;1.38;86.16
7966;BME280;4028;43.272;26.932;2024-01-11T11:01:01;99674.81;;;1.45;90.02
7966;BME280;4028;43.272;26.932;2024-01-11T11:03:27;99681.59;;;1.67;84.45
7966;BME280;4028;43.272;26.932;2024-01-11T11:05:54;99654.47;;;1.71;77.78
7966;BME280;4028;43.272;26.932;2024-01-11T11:08:23;99660.22;;;1.77;100.00
7966;BME280;4028;43.272;26.932;2024-01-11T11:10:55;99653.25;;;1.95;89.92
7966;BME280;4028;43.272;26.932;2024-01-11T11:13:22;99646.56;;;1.90;74.12
7966;BME280;4028;43.272;26.932;2024-01-11T11:15:48;99646.63;;;2.05;74.81
7966;BME280;4028;43.272;26.932;2024-01-11T11:18:17;99639.94;;;2.17;76.04
7966;BME280;4028;43.272;26.932;2024-01-11T11:20:43;99623.00;;;2.24;74.15
7966;BME280;4028;43.272;26.932;2024-01-11T11:23:10;99634.88;;;2.47;71.81
7966;BME280;4028;43.272;26.932;2024-01-11T11:25:36;99622.16;;;2.41;73.50
7966;BME280;4028;43.272;26.932;2024-01-11T11:28:03;99622.22;;;2.40;71.02
7966;BME280;4028;43.272;26.932;2024-01-11T11:30:33;99610.28;;;2.18;74.83
7966;BME280;4028;43.272;26.932;2024-01-11T11:33:08;99607.00;;;1.97;76.29
7966;BME280;4028;43.272;26.932;2024-01-11T11:35:33;99601.66;;;2.00;79.80
7966;BME280;4028;43.272;26.932;2024-01-11T11:37:59;99593.72;;;2.02;78.71
7966;BME280;4028;43.272;26.932;2024-01-11T11:40:36;99587.88;;;2.14;70.64
7966;BME280;4028;43.272;26.932;2024-01-11T11:43:05;99578.72;;;2.23;67.93
7966;BME280;4028;43.272;26.932;2024-01-11T11:45:31;99591.16;;;2.18;67.25
7966;BME280;4028;43.272;26.932;2024-01-11T11:47:57;99575.78;;;2.29;61.77
7966;BME280;4028;43.272;26.932;2024-01-11T11:50:23;99569.50;;;2.49;55.32
7966;BME280;4028;43.272;26.932;2024-01-11T11:52:57;99558.66;;;2.56;53.90
7966;BME280;4028;43.272;26.932;2024-01-11T11:55:23;99569.59;;;2.63;52.32
7966;BME280;4028;43.272;26.932;2024-01-11T11:57:51;99561.25;;;2.56;50.73
7966;BME280;4028;43.272;26.932;2024-01-11T12:00:17;99563.03;;;2.56;50.94
7966;BME280;4028;43.272;26.932;2024-01-11T12:02:43;99554.16;;;2.58;50.34
7966;BME280;4028;43.272;26.932;2024-01-11T12:05:08;99550.63;;;2.59;48.61
7966;BME280;4028;43.272;26.932;2024-01-11T12:07:34;99555.34;;;2.69;48.12
7966;BME280;4028;43.272;26.932;2024-01-11T12:10:00;99551.22;;;2.65;46.71
7966;BME280;4028;43.272;26.932;2024-01-11T12:12:26;99552.66;;;2.70;46.57
7966;BME280;4028;43.272;26.932;2024-01-11T12:14:53;99546.75;;;2.67;47.05
7966;BME280;4028;43.272;26.932;2024-01-11T12:17:18;99537.66;;;2.58;47.55
7966;BME280;4028;43.272;26.932;2024-01-11T12:19:44;99537.16;;;2.51;46.87
7966;BME280;4028;43.272;26.932;2024-01-11T12:22:10;99531.25;;;2.48;48.11
7966;BME280;4028;43.272;26.932;2024-01-11T12:24:35;99524.75;;;2.55;47.72
7966;BME280;4028;43.272;26.932;2024-01-11T12:27:01;99528.03;;;2.58;47.10
7966;BME280;4028;43.272;26.932;2024-01-11T12:29:30;99526.75;;;2.66;46.99
7966;BME280;4028;43.272;26.932;2024-01-11T12:31:59;99516.59;;;2.77;46.96
7966;BME280;4028;43.272;26.932;2024-01-11T12:34:25;99503.44;;;2.63;46.78
7966;BME280;4028;43.272;26.932;2024-01-11T12:36:52;99513.19;;;2.75;47.43
7966;BME280;4028;43.272;26.932;2024-01-11T12:39:19;99508.16;;;2.72;47.20
7966;BME280;4028;43.272;26.932;2024-01-11T12:41:49;99506.53;;;2.69;47.67
7966;BME280;4028;43.272;26.932;2024-01-11T12:44:14;99504.78;;;2.70;47.44
7966;BME280;4028;43.272;26.932;2024-01-11T12:46:40;99506.44;;;2.71;47.60
7966;BME280;4028;43.272;26.932;2024-01-11T12:49:09;99500.22;;;2.73;47.80
7966;BME280;4028;43.272;26.932;2024-01-11T12:51:36;99493.06;;;2.77;47.46
7966;BME280;4028;43.272;26.932;2024-01-11T12:54:01;99494.06;;;2.74;47.17
7966;BME280;4028;43.272;26.932;2024-01-11T12:56:29;99488.41;;;2.82;47.52